sensor_id;sensor_type;location;lat;lon;timestamp;P1;durP1;ratioP1;P2;durP2;ratioP2
72813;SDS011;60945;48.516;-2.768;2023-07-29T00:00:49;9.30;;;8.80;;
72813;SDS011;60945;48.516;-2.768;2023-07-29T00:03:15;9.25;;;8.80;;
72813;SDS011;60945;48.516;-2.768;2023-07-29T00:05:41;9.02;;;8.50;;
72813;SDS011;60945;48.516;-2.768;2023-07-29T00:08:06;9.77;;;9.27;;
72813;SDS011;60945;48.516;-2.768;2023-07-29T00:10:36;9.57;;;9.07;;
72813;SDS011;60945;48.516;-2.768;2023-07-29T00:13:02;9.68;;;9.10;;
72813;SDS011;60945;48.516;-2.768;2023-07-29T00:15:29;9.70;;;9.20;;
72813;SDS011;60945;48.516;-2.768;2023-07-29T00:17:54;10.30;;;9.70;;
72813;SDS011;60945;48.516;-2.768;2023-07-29T00:20:20;10.00;;;9.50;;
72813;SDS011;60945;48.516;-2.768;2023-07-29T00:22:46;9.50;;;9.00;;
72813;SDS011;60945;48.516;-2.768;2023-07-29T00:25:11;9.75;;;9.25;;
72813;SDS011;60945;48.516;-2.768;2023-07-29T00:27:37;10.07;;;9.48;;
72813;SDS011;60945;48.516;-2.768;2023-07-29T00:30:03;10.10;;;9.50;;
72813;SDS011;60945;48.516;-2.768;2023-07-29T00:32:29;10.43;;;9.82;;
72813;SDS011;60945;48.516;-2.768;2023-07-29T00:34:56;10.00;;;9.50;;
72813;SDS011;60945;48.516;-2.768;2023-07-29T00:37:21;10.38;;;9.82;;
72813;SDS011;60945;48.516;-2.768;2023-07-29T00:39:47;10.13;;;9.63;;
72813;SDS011;60945;48.516;-2.768;2023-07-29T00:42:12;10.55;;;10.00;;
72813;SDS011;60945;48.516;-2.768;2023-07-29T00:44:38;10.32;;;9.82;;
72813;SDS011;60945;48.516;-2.768;2023-07-29T00:47:04;10.55;;;9.95;;
72813;SDS011;60945;48.516;-2.768;2023-07-29T00:49:32;10.70;;;10.20;;
72813;SDS011;60945;48.516;-2.768;2023-07-29T00:51:58;11.07;;;10.57;;
72813;SDS011;60945;48.516;-2.768;2023-07-29T00:54:23;10.98;;;10.48;;
72813;SDS011;60945;48.516;-2.768;2023-07-29T00:56:49;10.98;;;10.48;;
72813;SDS011;60945;48.516;-2.768;2023-07-29T00:59:15;11.07;;;10.57;;
72813;SDS011;60945;48.516;-2.768;2023-07-29T01:01:41;11.20;;;10.70;;
72813;SDS011;60945;48.516;-2.768;2023-07-29T01:04:07;10.82;;;10.32;;
72813;SDS011;60945;48.516;-2.768;2023-07-29T01:09:25;11.10;;;10.60;;
72813;SDS011;60945;48.516;-2.768;2023-07-29T01:14:41;11.43;;;10.85;;
72813;SDS011;60945;48.516;-2.768;2023-07-29T01:17:13;11.50;;;11.00;;
72813;SDS011;60945;48.516;-2.768;2023-07-29T01:22:35;11.45;;;10.95;;
72813;SDS011;60945;48.516;-2.768;2023-07-29T01:25:02;12.07;;;11.48;;
72813;SDS011;60945;48.516;-2.768;2023-07-29T01:27:28;12.00;;;11.30;;
72813;SDS011;60945;48.516;-2.768;2023-07-29T01:29:54;12.13;;;11.43;;
72813;SDS011;60945;48.516;-2.768;2023-07-29T01:32:28;12.45;;;11.65;;
72813;SDS011;60945;48.516;-2.768;2023-07-29T01:37:32;12.25;;;11.40;;
72813;SDS011;60945;48.516;-2.768;2023-07-29T01:40:00;12.00;;;11.27;;
72813;SDS011;60945;48.516;-2.768;2023-07-29T01:42:26;11.55;;;10.93;;
72813;SDS011;60945;48.516;-2.768;2023-07-29T01:44:52;11.52;;;10.93;;
72813;SDS011;60945;48.516;-2.768;2023-07-29T01:47:18;11.77;;;11.07;;
72813;SDS011;60945;48.516;-2.768;2023-07-29T01:49:45;11.82;;;11.23;;
72813;SDS011;60945;48.516;-2.768;2023-07-29T01:52:11;11.88;;;11.23;;
72813;SDS011;60945;48.516;-2.768;2023-07-29T01:54:36;11.43;;;10.82;;
72813;SDS011;60945;48.516;-2.768;2023-07-29T01:57:02;11.63;;;10.95;;
72813;SDS011;60945;48.516;-2.768;2023-07-29T01:59:28;11.52;;;10.88;;
72813;SDS011;60945;48.516;-2.768;2023-07-29T02:01:53;11.50;;;10.93;;
72813;SDS011;60945;48.516;-2.768;2023-07-29T02:04:19;12.07;;;11.27;;
72813;SDS011;60945;48.516;-2.768;2023-07-29T02:06:45;11.70;;;11.20;;
72813;SDS011;60945;48.516;-2.768;2023-07-29T02:09:10;11.70;;;11.10;;
72813;SDS011;60945;48.516;-2.768;2023-07-29T02:11:36;11.45;;;10.95;;
72813;SDS011;60945;48.516;-2.768;2023-07-29T02:14:01;11.45;;;10.95;;
72813;SDS011;60945;48.516;-2.768;2023-07-29T02:16:28;11.07;;;10.57;;
72813;SDS011;60945;48.516;-2.768;2023-07-29T02:18:54;11.63;;;10.93;;
72813;SDS011;60945;48.516;-2.768;2023-07-29T02:21:19;11.40;;;10.70;;
72813;SDS011;60945;48.516;-2.768;2023-07-29T02:23:45;11.32;;;10.65;;
72813;SDS011;60945;48.516;-2.768;2023-07-29T02:26:11;10.93;;;10.32;;
72813;SDS011;60945;48.516;-2.768;2023-07-29T02:28:36;11.18;;;10.68;;
72813;SDS011;60945;48.516;-2.768;2023-07-29T02:31:09;11.40;;;10.60;;
72813;SDS011;60945;48.516;-2.768;2023-07-29T02:33:39;11.40;;;10.80;;
72813;SDS011;60945;48.516;-2.768;2023-07-29T02:36:04;11.02;;;10.35;;
72813;SDS011;60945;48.516;-2.768;2023-07-29T02:38:30;10.70;;;10.10;;
72813;SDS011;60945;48.516;-2.768;2023-07-29T02:40:55;11.25;;;10.57;;
72813;SDS011;60945;48.516;-2.768;2023-07-29T02:43:21;11.55;;;10.85;;
72813;SDS011;60945;48.516;-2.768;2023-07-29T02:45:47;11.90;;;11.10;;
72813;SDS011;60945;48.516;-2.768;2023-07-29T02:48:12;11.77;;;10.98;;
72813;SDS011;60945;48.516;-2.768;2023-07-29T02:50:38;11.45;;;10.73;;
72813;SDS011;60945;48.516;-2.768;2023-07-29T02:53:03;11.30;;;10.60;;
72813;SDS011;60945;48.516;-2.768;2023-07-29T02:55:29;11.20;;;10.57;;
72813;SDS011;60945;48.516;-2.768;2023-07-29T02:57:55;11.20;;;10.70;;
72813;SDS011;60945;48.516;-2.768;2023-07-29T03:00:20;11.40;;;10.80;;
72813;SDS011;60945;48.516;-2.768;2023-07-29T03:02:46;11.05;;;10.38;;
72813;SDS011;60945;48.516;-2.768;2023-07-29T03:05:11;10.68;;;10.18;;
72813;SDS011;60945;48.516;-2.768;2023-07-29T03:07:37;11.48;;;10.80;;
72813;SDS011;60945;48.516;-2.768;2023-07-29T03:10:03;11.50;;;10.90;;
72813;SDS011;60945;48.516;-2.768;2023-07-29T03:12:29;11.73;;;10.90;;
72813;SDS011;60945;48.516;-2.768;2023-07-29T03:14:56;11.23;;;10.43;;
72813;SDS011;60945;48.516;-2.768;2023-07-29T03:17:21;11.68;;;11.00;;
72813;SDS011;60945;48.516;-2.768;2023-07-29T03:19:47;11.30;;;10.70;;
72813;SDS011;60945;48.516;-2.768;2023-07-29T03:22:13;11.13;;;10.50;;
72813;SDS011;60945;48.516;-2.768;2023-07-29T03:24:38;11.52;;;10.80;;
72813;SDS011;60945;48.516;-2.768;2023-07-29T03:27:04;11.90;;;11.20;;
72813;SDS011;60945;48.516;-2.768;2023-07-29T03:29:30;12.00;;;11.23;;
72813;SDS011;60945;48.516;-2.768;2023-07-29T03:31:56;12.32;;;11.63;;
72813;SDS011;60945;48.516;-2.768;2023-07-29T03:34:21;12.20;;;11.50;;
72813;SDS011;60945;48.516;-2.768;2023-07-29T03:36:47;12.52;;;11.65;;
72813;SDS011;60945;48.516;-2.768;2023-07-29T03:39:13;12.18;;;11.32;;
72813;SDS011;60945;48.516;-2.768;2023-07-29T03:41:39;12.43;;;11.73;;
72813;SDS011;60945;48.516;-2.768;2023-07-29T03:44:05;12.05;;;11.35;;
72813;SDS011;60945;48.516;-2.768;2023-07-29T03:46:31;12.82;;;11.93;;
72813;SDS011;60945;48.516;-2.768;2023-07-29T03:48:56;12.10;;;11.40;;
72813;SDS011;60945;48.516;-2.768;2023-07-29T03:51:22;12.00;;;11.32;;
72813;SDS011;60945;48.516;-2.768;2023-07-29T03:53:49;12.18;;;11.50;;
72813;SDS011;60945;48.516;-2.768;2023-07-29T03:56:15;12.63;;;11.73;;
72813;SDS011;60945;48.516;-2.768;2023-07-29T03:58:41;12.35;;;11.57;;
72813;SDS011;60945;48.516;-2.768;2023-07-29T04:01:06;12.27;;;11.50;;
72813;SDS011;60945;48.516;-2.768;2023-07-29T04:03:33;12.43;;;11.60;;
72813;SDS011;60945;48.516;-2.768;2023-07-29T04:05:59;12.05;;;11.15;;
72813;SDS011;60945;48.516;-2.768;2023-07-29T04:08:25;11.90;;;11.30;;
72813;SDS011;60945;48.516;-2.768;2023-07-29T04:10:51;12.23;;;11.52;;
72813;SDS011;60945;48.516;-2.768;2023-07-29T04:13:16;11.77;;;10.98;;
72813;SDS011;60945;48.516;-2.768;2023-07-29T04:15:42;11.75;;;11.00;;
72813;SDS011;60945;48.516;-2.768;2023-07-29T04:18:08;12.52;;;11.70;;
72813;SDS011;60945;48.516;-2.768;2023-07-29T04:20:33;12.25;;;11.55;;
72813;SDS011;60945;48.516;-2.768;2023-07-29T04:22:59;12.15;;;11.43;;
72813;SDS011;60945;48.516;-2.768;2023-07-29T04:25:25;12.32;;;11.63;;
72813;SDS011;60945;48.516;-2.768;2023-07-29T04:27:50;12.50;;;11.65;;
72813;SDS011;60945;48.516;-2.768;2023-07-29T04:30:16;12.80;;;11.98;;
72813;SDS011;60945;48.516;-2.768;2023-07-29T04:32:41;12.27;;;11.68;;
72813;SDS011;60945;48.516;-2.768;2023-07-29T04:35:10;12.20;;;11.50;;
72813;SDS011;60945;48.516;-2.768;2023-07-29T04:37:35;12.40;;;11.73;;
72813;SDS011;60945;48.516;-2.768;2023-07-29T04:40:01;12.13;;;11.43;;
72813;SDS011;60945;48.516;-2.768;2023-07-29T04:42:27;11.98;;;11.38;;
72813;SDS011;60945;48.516;-2.768;2023-07-29T04:44:53;12.30;;;11.60;;
72813;SDS011;60945;48.516;-2.768;2023-07-29T04:47:18;12.38;;;11.68;;
72813;SDS011;60945;48.516;-2.768;2023-07-29T04:49:44;11.77;;;11.18;;
72813;SDS011;60945;48.516;-2.768;2023-07-29T04:52:10;11.80;;;11.10;;
72813;SDS011;60945;48.516;-2.768;2023-07-29T04:54:35;11.68;;;11.07;;
72813;SDS011;60945;48.516;-2.768;2023-07-29T04:57:01;11.60;;;10.90;;
72813;SDS011;60945;48.516;-2.768;2023-07-29T04:59:26;11.27;;;10.68;;
72813;SDS011;60945;48.516;-2.768;2023-07-29T05:01:52;11.50;;;10.90;;
72813;SDS011;60945;48.516;-2.768;2023-07-29T05:04:18;11.25;;;10.65;;
72813;SDS011;60945;48.516;-2.768;2023-07-29T05:06:43;11.50;;;10.90;;
72813;SDS011;60945;48.516;-2.768;2023-07-29T05:09:15;12.05;;;11.10;;
72813;SDS011;60945;48.516;-2.768;2023-07-29T05:11:43;11.77;;;11.18;;
72813;SDS011;60945;48.516;-2.768;2023-07-29T05:14:12;11.30;;;10.65;;
72813;SDS011;60945;48.516;-2.768;2023-07-29T05:16:39;11.63;;;11.02;;
72813;SDS011;60945;48.516;-2.768;2023-07-29T05:19:05;10.93;;;10.43;;
72813;SDS011;60945;48.516;-2.768;2023-07-29T05:21:30;10.90;;;10.23;;
72813;SDS011;60945;48.516;-2.768;2023-07-29T05:23:56;10.80;;;10.20;;
72813;SDS011;60945;48.516;-2.768;2023-07-29T05:26:22;10.90;;;10.40;;
72813;SDS011;60945;48.516;-2.768;2023-07-29T05:28:48;10.40;;;9.90;;
72813;SDS011;60945;48.516;-2.768;2023-07-29T05:31:13;10.27;;;9.70;;
72813;SDS011;60945;48.516;-2.768;2023-07-29T05:33:39;10.20;;;9.65;;
72813;SDS011;60945;48.516;-2.768;2023-07-29T05:36:05;9.98;;;9.38;;
72813;SDS011;60945;48.516;-2.768;2023-07-29T05:38:30;10.70;;;10.00;;
72813;SDS011;60945;48.516;-2.768;2023-07-29T05:40:56;10.40;;;9.90;;
72813;SDS011;60945;48.516;-2.768;2023-07-29T05:43:23;10.18;;;9.57;;
72813;SDS011;60945;48.516;-2.768;2023-07-29T05:45:49;9.90;;;9.40;;
72813;SDS011;60945;48.516;-2.768;2023-07-29T05:48:16;9.63;;;9.13;;
72813;SDS011;60945;48.516;-2.768;2023-07-29T05:50:41;9.57;;;9.07;;
72813;SDS011;60945;48.516;-2.768;2023-07-29T05:53:07;10.13;;;9.52;;
72813;SDS011;60945;48.516;-2.768;2023-07-29T05:55:33;9.77;;;9.10;;
72813;SDS011;60945;48.516;-2.768;2023-07-29T05:57:58;10.57;;;9.77;;
72813;SDS011;60945;48.516;-2.768;2023-07-29T06:00:24;10.25;;;9.65;;
72813;SDS011;60945;48.516;-2.768;2023-07-29T06:02:50;9.43;;;8.93;;
72813;SDS011;60945;48.516;-2.768;2023-07-29T06:05:15;10.20;;;9.50;;
72813;SDS011;60945;48.516;-2.768;2023-07-29T06:07:41;9.90;;;9.30;;
72813;SDS011;60945;48.516;-2.768;2023-07-29T06:10:13;10.35;;;9.52;;
72813;SDS011;60945;48.516;-2.768;2023-07-29T06:12:42;9.80;;;9.18;;
72813;SDS011;60945;48.516;-2.768;2023-07-29T06:15:08;9.95;;;9.32;;
72813;SDS011;60945;48.516;-2.768;2023-07-29T06:17:34;10.27;;;9.48;;
72813;SDS011;60945;48.516;-2.768;2023-07-29T06:20:00;9.18;;;8.50;;
72813;SDS011;60945;48.516;-2.768;2023-07-29T06:22:26;10.38;;;9.68;;
72813;SDS011;60945;48.516;-2.768;2023-07-29T06:24:51;9.70;;;9.20;;
72813;SDS011;60945;48.516;-2.768;2023-07-29T06:27:17;10.05;;;9.15;;
72813;SDS011;60945;48.516;-2.768;2023-07-29T06:29:42;9.57;;;8.90;;
72813;SDS011;60945;48.516;-2.768;2023-07-29T06:32:08;9.07;;;8.48;;
72813;SDS011;60945;48.516;-2.768;2023-07-29T06:34:34;9.25;;;8.48;;
72813;SDS011;60945;48.516;-2.768;2023-07-29T06:36:59;8.93;;;8.43;;
72813;SDS011;60945;48.516;-2.768;2023-07-29T06:39:25;9.15;;;8.55;;
72813;SDS011;60945;48.516;-2.768;2023-07-29T06:41:50;9.60;;;8.90;;
72813;SDS011;60945;48.516;-2.768;2023-07-29T06:44:16;9.13;;;8.43;;
72813;SDS011;60945;48.516;-2.768;2023-07-29T06:46:42;8.68;;;7.88;;
72813;SDS011;60945;48.516;-2.768;2023-07-29T06:49:07;9.10;;;8.50;;
72813;SDS011;60945;48.516;-2.768;2023-07-29T06:51:33;9.30;;;8.50;;
72813;SDS011;60945;48.516;-2.768;2023-07-29T06:54:00;9.82;;;9.05;;
72813;SDS011;60945;48.516;-2.768;2023-07-29T06:56:26;9.88;;;8.90;;
72813;SDS011;60945;48.516;-2.768;2023-07-29T06:58:52;9.63;;;8.57;;
72813;SDS011;60945;48.516;-2.768;2023-07-29T07:01:18;9.20;;;8.50;;
72813;SDS011;60945;48.516;-2.768;2023-07-29T07:03:43;9.77;;;9.05;;
72813;SDS011;60945;48.516;-2.768;2023-07-29T07:06:09;9.43;;;8.82;;
72813;SDS011;60945;48.516;-2.768;2023-07-29T07:08:34;9.70;;;8.80;;
72813;SDS011;60945;48.516;-2.768;2023-07-29T07:11:00;9.90;;;9.13;;
72813;SDS011;60945;48.516;-2.768;2023-07-29T07:13:26;9.45;;;8.75;;
72813;SDS011;60945;48.516;-2.768;2023-07-29T07:15:54;9.63;;;8.88;;
72813;SDS011;60945;48.516;-2.768;2023-07-29T07:18:22;10.23;;;9.30;;
72813;SDS011;60945;48.516;-2.768;2023-07-29T07:20:49;9.77;;;8.93;;
72813;SDS011;60945;48.516;-2.768;2023-07-29T07:23:15;9.50;;;8.70;;
72813;SDS011;60945;48.516;-2.768;2023-07-29T07:25:41;9.70;;;8.93;;
72813;SDS011;60945;48.516;-2.768;2023-07-29T07:28:10;9.45;;;8.65;;
72813;SDS011;60945;48.516;-2.768;2023-07-29T07:30:38;9.23;;;8.43;;
72813;SDS011;60945;48.516;-2.768;2023-07-29T07:33:06;9.32;;;8.73;;
72813;SDS011;60945;48.516;-2.768;2023-07-29T07:35:31;9.63;;;8.70;;
72813;SDS011;60945;48.516;-2.768;2023-07-29T07:37:57;9.75;;;8.75;;
72813;SDS011;60945;48.516;-2.768;2023-07-29T07:40:23;9.93;;;9.23;;
72813;SDS011;60945;48.516;-2.768;2023-07-29T07:42:49;9.73;;;8.77;;
72813;SDS011;60945;48.516;-2.768;2023-07-29T07:45:15;9.65;;;8.75;;
72813;SDS011;60945;48.516;-2.768;2023-07-29T07:47:42;9.68;;;8.80;;
72813;SDS011;60945;48.516;-2.768;2023-07-29T07:50:08;9.02;;;8.32;;
72813;SDS011;60945;48.516;-2.768;2023-07-29T07:52:34;9.30;;;8.57;;
72813;SDS011;60945;48.516;-2.768;2023-07-29T07:55:00;9.15;;;8.05;;
72813;SDS011;60945;48.516;-2.768;2023-07-29T07:57:25;8.68;;;7.97;;
72813;SDS011;60945;48.516;-2.768;2023-07-29T07:59:51;9.02;;;8.23;;
72813;SDS011;60945;48.516;-2.768;2023-07-29T08:02:17;8.82;;;8.07;;
72813;SDS011;60945;48.516;-2.768;2023-07-29T08:04:43;9.18;;;8.30;;
72813;SDS011;60945;48.516;-2.768;2023-07-29T08:07:09;8.93;;;8.23;;
72813;SDS011;60945;48.516;-2.768;2023-07-29T08:09:34;8.45;;;7.70;;
72813;SDS011;60945;48.516;-2.768;2023-07-29T08:12:00;8.60;;;7.97;;
72813;SDS011;60945;48.516;-2.768;2023-07-29T08:14:26;8.32;;;7.60;;
72813;SDS011;60945;48.516;-2.768;2023-07-29T08:16:52;8.95;;;8.15;;
72813;SDS011;60945;48.516;-2.768;2023-07-29T08:19:17;10.23;;;9.32;;
72813;SDS011;60945;48.516;-2.768;2023-07-29T08:21:43;10.57;;;9.43;;
72813;SDS011;60945;48.516;-2.768;2023-07-29T08:24:08;10.60;;;9.52;;
72813;SDS011;60945;48.516;-2.768;2023-07-29T08:26:34;9.60;;;8.77;;
72813;SDS011;60945;48.516;-2.768;2023-07-29T08:29:00;8.93;;;8.10;;
72813;SDS011;60945;48.516;-2.768;2023-07-29T08:31:25;8.70;;;8.00;;
72813;SDS011;60945;48.516;-2.768;2023-07-29T08:33:51;8.85;;;8.15;;
72813;SDS011;60945;48.516;-2.768;2023-07-29T08:36:17;8.38;;;7.65;;
72813;SDS011;60945;48.516;-2.768;2023-07-29T08:38:42;8.90;;;8.18;;
72813;SDS011;60945;48.516;-2.768;2023-07-29T08:46:35;9.20;;;8.32;;
72813;SDS011;60945;48.516;-2.768;2023-07-29T08:49:01;9.73;;;8.93;;
72813;SDS011;60945;48.516;-2.768;2023-07-29T08:51:27;9.15;;;8.45;;
72813;SDS011;60945;48.516;-2.768;2023-07-29T08:53:56;8.63;;;7.97;;
72813;SDS011;60945;48.516;-2.768;2023-07-29T08:56:23;9.52;;;8.82;;
72813;SDS011;60945;48.516;-2.768;2023-07-29T08:58:49;8.65;;;7.95;;
72813;SDS011;60945;48.516;-2.768;2023-07-29T09:01:15;8.90;;;8.20;;
72813;SDS011;60945;48.516;-2.768;2023-07-29T09:03:41;9.02;;;8.32;;
72813;SDS011;60945;48.516;-2.768;2023-07-29T09:06:07;8.80;;;8.15;;
72813;SDS011;60945;48.516;-2.768;2023-07-29T09:08:33;9.13;;;8.48;;
72813;SDS011;60945;48.516;-2.768;2023-07-29T09:10:59;9.55;;;8.77;;
72813;SDS011;60945;48.516;-2.768;2023-07-29T09:13:25;9.30;;;8.65;;
72813;SDS011;60945;48.516;-2.768;2023-07-29T09:15:55;9.23;;;8.50;;
72813;SDS011;60945;48.516;-2.768;2023-07-29T09:18:26;9.52;;;8.90;;
72813;SDS011;60945;48.516;-2.768;2023-07-29T09:20:52;9.02;;;8.43;;
72813;SDS011;60945;48.516;-2.768;2023-07-29T09:23:18;9.30;;;8.65;;
72813;SDS011;60945;48.516;-2.768;2023-07-29T09:25:45;9.20;;;8.60;;
72813;SDS011;60945;48.516;-2.768;2023-07-29T09:28:12;9.38;;;8.68;;
72813;SDS011;60945;48.516;-2.768;2023-07-29T09:30:39;8.98;;;8.38;;
72813;SDS011;60945;48.516;-2.768;2023-07-29T09:33:06;9.25;;;8.65;;
72813;SDS011;60945;48.516;-2.768;2023-07-29T09:35:33;9.20;;;8.60;;
72813;SDS011;60945;48.516;-2.768;2023-07-29T09:38:00;8.77;;;8.15;;
72813;SDS011;60945;48.516;-2.768;2023-07-29T09:40:26;8.65;;;8.07;;
72813;SDS011;60945;48.516;-2.768;2023-07-29T09:42:53;9.50;;;8.60;;
72813;SDS011;60945;48.516;-2.768;2023-07-29T09:45:25;8.27;;;7.68;;
72813;SDS011;60945;48.516;-2.768;2023-07-29T09:47:56;8.13;;;7.60;;
72813;SDS011;60945;48.516;-2.768;2023-07-29T09:50:26;8.05;;;7.55;;
72813;SDS011;60945;48.516;-2.768;2023-07-29T09:52:53;8.65;;;7.95;;
72813;SDS011;60945;48.516;-2.768;2023-07-29T09:55:23;8.00;;;7.30;;
72813;SDS011;60945;48.516;-2.768;2023-07-29T09:57:57;7.73;;;7.23;;
72813;SDS011;60945;48.516;-2.768;2023-07-29T10:00:29;8.27;;;7.78;;
72813;SDS011;60945;48.516;-2.768;2023-07-29T10:02:55;7.75;;;7.25;;
72813;SDS011;60945;48.516;-2.768;2023-07-29T10:05:25;8.27;;;7.68;;
72813;SDS011;60945;48.516;-2.768;2023-07-29T10:07:51;8.25;;;7.65;;
72813;SDS011;60945;48.516;-2.768;2023-07-29T10:10:17;7.28;;;6.88;;
72813;SDS011;60945;48.516;-2.768;2023-07-29T10:12:42;7.63;;;7.13;;
72813;SDS011;60945;48.516;-2.768;2023-07-29T10:15:09;7.20;;;6.80;;
72813;SDS011;60945;48.516;-2.768;2023-07-29T10:17:36;7.57;;;7.07;;
72813;SDS011;60945;48.516;-2.768;2023-07-29T10:20:09;7.97;;;7.47;;
72813;SDS011;60945;48.516;-2.768;2023-07-29T10:22:47;7.57;;;7.05;;
72813;SDS011;60945;48.516;-2.768;2023-07-29T10:25:15;8.32;;;7.53;;
72813;SDS011;60945;48.516;-2.768;2023-07-29T10:27:43;7.55;;;7.07;;
72813;SDS011;60945;48.516;-2.768;2023-07-29T10:30:12;7.65;;;7.15;;
72813;SDS011;60945;48.516;-2.768;2023-07-29T10:32:38;7.80;;;7.30;;
72813;SDS011;60945;48.516;-2.768;2023-07-29T10:35:07;8.25;;;7.82;;
72813;SDS011;60945;48.516;-2.768;2023-07-29T10:37:33;8.07;;;7.47;;
72813;SDS011;60945;48.516;-2.768;2023-07-29T10:39:59;7.80;;;7.40;;
72813;SDS011;60945;48.516;-2.768;2023-07-29T10:42:25;8.40;;;7.80;;
72813;SDS011;60945;48.516;-2.768;2023-07-29T10:44:52;8.07;;;7.57;;
72813;SDS011;60945;48.516;-2.768;2023-07-29T10:47:19;7.63;;;7.10;;
72813;SDS011;60945;48.516;-2.768;2023-07-29T10:49:53;7.80;;;7.30;;
72813;SDS011;60945;48.516;-2.768;2023-07-29T10:52:30;7.38;;;6.78;;
72813;SDS011;60945;48.516;-2.768;2023-07-29T10:54:59;7.93;;;7.32;;
72813;SDS011;60945;48.516;-2.768;2023-07-29T10:57:38;8.00;;;7.40;;
72813;SDS011;60945;48.516;-2.768;2023-07-29T11:00:06;7.90;;;7.33;;
72813;SDS011;60945;48.516;-2.768;2023-07-29T11:02:36;7.30;;;6.78;;
72813;SDS011;60945;48.516;-2.768;2023-07-29T11:05:06;7.20;;;6.80;;
72813;SDS011;60945;48.516;-2.768;2023-07-29T11:07:58;7.50;;;6.95;;
72813;SDS011;60945;48.516;-2.768;2023-07-29T11:10:43;7.18;;;6.68;;
72813;SDS011;60945;48.516;-2.768;2023-07-29T11:13:10;7.55;;;7.00;;
72813;SDS011;60945;48.516;-2.768;2023-07-29T11:15:36;6.93;;;6.50;;
72813;SDS011;60945;48.516;-2.768;2023-07-29T11:18:04;7.57;;;6.97;;
72813;SDS011;60945;48.516;-2.768;2023-07-29T11:20:33;7.60;;;6.90;;
72813;SDS011;60945;48.516;-2.768;2023-07-29T11:23:00;7.80;;;7.10;;
72813;SDS011;60945;48.516;-2.768;2023-07-29T11:25:29;7.20;;;6.63;;
72813;SDS011;60945;48.516;-2.768;2023-07-29T11:27:56;8.27;;;7.65;;
72813;SDS011;60945;48.516;-2.768;2023-07-29T11:30:23;8.20;;;7.50;;
72813;SDS011;60945;48.516;-2.768;2023-07-29T11:32:54;7.20;;;6.80;;
72813;SDS011;60945;48.516;-2.768;2023-07-29T11:35:21;7.78;;;7.28;;
72813;SDS011;60945;48.516;-2.768;2023-07-29T11:37:47;7.88;;;7.28;;
72813;SDS011;60945;48.516;-2.768;2023-07-29T11:40:17;7.22;;;6.72;;
72813;SDS011;60945;48.516;-2.768;2023-07-29T11:42:44;7.30;;;6.80;;
72813;SDS011;60945;48.516;-2.768;2023-07-29T11:45:11;6.90;;;6.40;;
72813;SDS011;60945;48.516;-2.768;2023-07-29T11:47:38;7.18;;;6.78;;
72813;SDS011;60945;48.516;-2.768;2023-07-29T11:50:05;7.60;;;6.50;;
72813;SDS011;60945;48.516;-2.768;2023-07-29T11:52:36;7.53;;;7.07;;
72813;SDS011;60945;48.516;-2.768;2023-07-29T11:55:02;6.90;;;6.30;;
72813;SDS011;60945;48.516;-2.768;2023-07-29T11:57:30;6.43;;;6.03;;
72813;SDS011;60945;48.516;-2.768;2023-07-29T11:59:56;6.90;;;6.40;;
72813;SDS011;60945;48.516;-2.768;2023-07-29T12:02:23;6.93;;;6.38;;
72813;SDS011;60945;48.516;-2.768;2023-07-29T12:04:50;7.40;;;6.90;;
72813;SDS011;60945;48.516;-2.768;2023-07-29T12:07:17;7.80;;;7.30;;
72813;SDS011;60945;48.516;-2.768;2023-07-29T12:09:44;7.57;;;7.05;;
72813;SDS011;60945;48.516;-2.768;2023-07-29T12:12:11;7.05;;;6.45;;
72813;SDS011;60945;48.516;-2.768;2023-07-29T12:14:36;7.20;;;6.50;;
72813;SDS011;60945;48.516;-2.768;2023-07-29T12:17:03;6.93;;;6.40;;
72813;SDS011;60945;48.516;-2.768;2023-07-29T12:19:33;7.43;;;6.95;;
72813;SDS011;60945;48.516;-2.768;2023-07-29T12:22:01;7.90;;;7.20;;
72813;SDS011;60945;48.516;-2.768;2023-07-29T12:24:31;7.82;;;7.32;;
72813;SDS011;60945;48.516;-2.768;2023-07-29T12:26:58;7.80;;;7.20;;
72813;SDS011;60945;48.516;-2.768;2023-07-29T12:29:25;7.07;;;6.68;;
72813;SDS011;60945;48.516;-2.768;2023-07-29T12:32:01;7.20;;;6.70;;
72813;SDS011;60945;48.516;-2.768;2023-07-29T12:34:28;7.38;;;6.88;;
72813;SDS011;60945;48.516;-2.768;2023-07-29T12:36:55;6.95;;;6.38;;
72813;SDS011;60945;48.516;-2.768;2023-07-29T12:39:23;6.63;;;6.07;;
72813;SDS011;60945;48.516;-2.768;2023-07-29T12:41:51;6.80;;;6.30;;
72813;SDS011;60945;48.516;-2.768;2023-07-29T12:44:18;6.45;;;6.05;;
72813;SDS011;60945;48.516;-2.768;2023-07-29T12:46:44;6.80;;;6.30;;
72813;SDS011;60945;48.516;-2.768;2023-07-29T12:49:10;6.97;;;6.47;;
72813;SDS011;60945;48.516;-2.768;2023-07-29T12:51:36;6.43;;;6.03;;
72813;SDS011;60945;48.516;-2.768;2023-07-29T12:54:05;6.80;;;6.28;;
72813;SDS011;60945;48.516;-2.768;2023-07-29T12:56:31;6.78;;;6.28;;
72813;SDS011;60945;48.516;-2.768;2023-07-29T12:58:57;6.28;;;5.88;;
72813;SDS011;60945;48.516;-2.768;2023-07-29T13:01:23;6.18;;;5.68;;
72813;SDS011;60945;48.516;-2.768;2023-07-29T13:03:49;6.60;;;6.20;;
72813;SDS011;60945;48.516;-2.768;2023-07-29T13:06:15;6.40;;;6.00;;
72813;SDS011;60945;48.516;-2.768;2023-07-29T13:08:41;6.13;;;5.72;;
72813;SDS011;60945;48.516;-2.768;2023-07-29T13:11:07;5.82;;;5.53;;
72813;SDS011;60945;48.516;-2.768;2023-07-29T13:13:33;6.28;;;5.78;;
72813;SDS011;60945;48.516;-2.768;2023-07-29T13:15:59;6.75;;;6.25;;
72813;SDS011;60945;48.516;-2.768;2023-07-29T13:18:24;6.57;;;6.18;;
72813;SDS011;60945;48.516;-2.768;2023-07-29T13:20:50;6.53;;;5.93;;
72813;SDS011;60945;48.516;-2.768;2023-07-29T13:23:16;6.65;;;6.05;;
72813;SDS011;60945;48.516;-2.768;2023-07-29T13:25:42;6.15;;;5.75;;
72813;SDS011;60945;48.516;-2.768;2023-07-29T13:28:10;6.78;;;6.38;;
72813;SDS011;60945;48.516;-2.768;2023-07-29T13:30:36;7.93;;;7.20;;
72813;SDS011;60945;48.516;-2.768;2023-07-29T13:33:02;8.07;;;7.53;;
72813;SDS011;60945;48.516;-2.768;2023-07-29T13:35:28;7.50;;;7.00;;
72813;SDS011;60945;48.516;-2.768;2023-07-29T13:37:56;8.40;;;7.60;;
72813;SDS011;60945;48.516;-2.768;2023-07-29T13:40:21;7.20;;;6.60;;
72813;SDS011;60945;48.516;-2.768;2023-07-29T13:42:47;8.07;;;7.30;;
72813;SDS011;60945;48.516;-2.768;2023-07-29T13:45:12;7.68;;;7.10;;
72813;SDS011;60945;48.516;-2.768;2023-07-29T13:47:38;8.00;;;7.40;;
72813;SDS011;60945;48.516;-2.768;2023-07-29T13:50:04;7.75;;;7.18;;
72813;SDS011;60945;48.516;-2.768;2023-07-29T13:52:32;7.43;;;6.93;;
72813;SDS011;60945;48.516;-2.768;2023-07-29T13:54:58;7.88;;;7.30;;
72813;SDS011;60945;48.516;-2.768;2023-07-29T13:57:23;7.60;;;6.80;;
72813;SDS011;60945;48.516;-2.768;2023-07-29T13:59:49;7.68;;;7.00;;
72813;SDS011;60945;48.516;-2.768;2023-07-29T14:02:15;7.07;;;6.47;;
72813;SDS011;60945;48.516;-2.768;2023-07-29T14:04:40;7.30;;;6.80;;
72813;SDS011;60945;48.516;-2.768;2023-07-29T14:07:06;7.43;;;6.82;;
72813;SDS011;60945;48.516;-2.768;2023-07-29T14:09:31;6.85;;;6.35;;
72813;SDS011;60945;48.516;-2.768;2023-07-29T14:11:57;6.15;;;5.75;;
72813;SDS011;60945;48.516;-2.768;2023-07-29T14:14:23;6.55;;;6.05;;
72813;SDS011;60945;48.516;-2.768;2023-07-29T14:16:48;6.47;;;5.95;;
72813;SDS011;60945;48.516;-2.768;2023-07-29T14:19:14;6.68;;;6.28;;
72813;SDS011;60945;48.516;-2.768;2023-07-29T14:21:40;6.93;;;6.40;;
72813;SDS011;60945;48.516;-2.768;2023-07-29T14:24:05;6.60;;;6.10;;
72813;SDS011;60945;48.516;-2.768;2023-07-29T14:26:31;7.13;;;6.55;;
72813;SDS011;60945;48.516;-2.768;2023-07-29T14:28:57;6.63;;;6.00;;
72813;SDS011;60945;48.516;-2.768;2023-07-29T14:31:22;6.65;;;6.25;;
72813;SDS011;60945;48.516;-2.768;2023-07-29T14:33:48;6.65;;;6.25;;
72813;SDS011;60945;48.516;-2.768;2023-07-29T14:36:16;7.10;;;6.60;;
72813;SDS011;60945;48.516;-2.768;2023-07-29T14:38:42;7.05;;;6.55;;